Lawton, Nevada
Current Conditions -  °F | °C
As of 9:55 AM on Monday 24 Nov 2014 (Local Time) from KRNO Reporting Station
Broken Clouds Broken Clouds  
Wind Chill: 36°   Ceiling: 25000
Heat Index: 36°   Visibility: 10mi
Dew Point: 22°   Wind: 0mph
Humidity: 57%   Direction: NA
Pressure: 30.51"   Gusts: NA
Location:  39.5376°N, 119.841°W
Report Text: KRNO 241755Z 00000KT 10SM BKN250 BKN300 02/M06 A3051 RMK AO2 SLP339 T00221056 10022 21044 50013
Loading
Personal Weather Stations






























Interactive Weather Map New forecast layout! Learn more

10-Day Weather Forecast

Advertisements
Track Severe Weather on mobile